sensor_id;sensor_type;location;lat;lon;timestamp;pressure;altitude;pressure_sealevel;temperature;humidity
75157;BME280;63736;50.076;8.198;2023-02-22T00:00:37;99489.78;;;4.96;100.00
75157;BME280;63736;50.076;8.198;2023-02-22T00:05:35;99487.03;;;4.97;100.00
75157;BME280;63736;50.076;8.198;2023-02-22T00:08:04;99494.72;;;5.02;100.00
75157;BME280;63736;50.076;8.198;2023-02-22T00:10:29;99485.63;;;5.06;100.00
75157;BME280;63736;50.076;8.198;2023-02-22T00:12:55;99487.91;;;5.12;100.00
75157;BME280;63736;50.076;8.198;2023-02-22T00:15:22;99482.31;;;5.17;100.00
75157;BME280;63736;50.076;8.198;2023-02-22T00:17:52;99476.63;;;5.23;100.00
75157;BME280;63736;50.076;8.198;2023-02-22T00:20:17;99483.63;;;5.24;100.00
75157;BME280;63736;50.076;8.198;2023-02-22T00:22:44;99479.19;;;5.25;100.00
75157;BME280;63736;50.076;8.198;2023-02-22T00:25:17;99476.44;;;5.26;100.00
75157;BME280;63736;50.076;8.198;2023-02-22T00:27:44;99463.66;;;5.33;100.00
75157;BME280;63736;50.076;8.198;2023-02-22T00:30:18;99477.44;;;5.38;100.00
75157;BME280;63736;50.076;8.198;2023-02-22T00:32:48;99458.91;;;5.38;100.00
75157;BME280;63736;50.076;8.198;2023-02-22T00:35:15;99458.06;;;5.38;100.00
75157;BME280;63736;50.076;8.198;2023-02-22T00:37:41;99460.06;;;5.34;100.00
75157;BME280;63736;50.076;8.198;2023-02-22T00:40:09;99461.41;;;5.27;100.00
75157;BME280;63736;50.076;8.198;2023-02-22T00:42:34;99455.09;;;5.15;100.00
75157;BME280;63736;50.076;8.198;2023-02-22T00:45:00;99453.97;;;5.05;100.00
75157;BME280;63736;50.076;8.198;2023-02-22T00:47:25;99457.53;;;5.04;100.00
75157;BME280;63736;50.076;8.198;2023-02-22T00:49:51;99457.81;;;4.99;100.00
75157;BME280;63736;50.076;8.198;2023-02-22T00:52:16;99458.28;;;4.91;100.00
75157;BME280;63736;50.076;8.198;2023-02-22T00:54:42;99452.53;;;4.85;100.00
75157;BME280;63736;50.076;8.198;2023-02-22T00:57:07;99448.56;;;4.77;100.00
75157;BME280;63736;50.076;8.198;2023-02-22T00:59:32;99444.59;;;4.70;100.00
75157;BME280;63736;50.076;8.198;2023-02-22T01:01:58;99434.31;;;4.66;100.00
75157;BME280;63736;50.076;8.198;2023-02-22T01:04:23;99441.66;;;4.60;100.00
75157;BME280;63736;50.076;8.198;2023-02-22T01:06:48;99438.44;;;4.55;100.00
75157;BME280;63736;50.076;8.198;2023-02-22T01:09:13;99436.91;;;4.51;100.00
75157;BME280;63736;50.076;8.198;2023-02-22T01:11:39;99432.00;;;4.45;100.00
75157;BME280;63736;50.076;8.198;2023-02-22T01:14:05;99433.09;;;4.41;100.00
75157;BME280;63736;50.076;8.198;2023-02-22T01:16:34;99433.41;;;4.36;100.00
75157;BME280;63736;50.076;8.198;2023-02-22T01:18:59;99434.63;;;4.30;100.00
75157;BME280;63736;50.076;8.198;2023-02-22T01:21:25;99433.19;;;4.25;100.00
75157;BME280;63736;50.076;8.198;2023-02-22T01:23:50;99421.28;;;4.18;100.00
75157;BME280;63736;50.076;8.198;2023-02-22T01:26:16;99418.06;;;4.12;100.00
75157;BME280;63736;50.076;8.198;2023-02-22T01:28:43;99419.94;;;4.10;100.00
75157;BME280;63736;50.076;8.198;2023-02-22T01:31:09;99419.34;;;4.05;100.00
75157;BME280;63736;50.076;8.198;2023-02-22T01:33:34;99419.69;;;3.99;100.00
75157;BME280;63736;50.076;8.198;2023-02-22T01:35:59;99420.09;;;3.93;100.00
75157;BME280;63736;50.076;8.198;2023-02-22T01:38:25;99412.41;;;3.88;100.00
75157;BME280;63736;50.076;8.198;2023-02-22T01:40:50;99414.47;;;3.83;100.00
75157;BME280;63736;50.076;8.198;2023-02-22T01:43:21;99413.78;;;3.79;100.00
75157;BME280;63736;50.076;8.198;2023-02-22T01:45:56;99410.50;;;3.76;100.00
75157;BME280;63736;50.076;8.198;2023-02-22T01:48:33;99413.38;;;3.71;100.00
75157;BME280;63736;50.076;8.198;2023-02-22T01:51:02;99406.69;;;3.66;100.00
75157;BME280;63736;50.076;8.198;2023-02-22T01:53:39;99407.03;;;3.59;100.00
75157;BME280;63736;50.076;8.198;2023-02-22T01:56:06;99402.91;;;3.54;100.00
75157;BME280;63736;50.076;8.198;2023-02-22T01:58:33;99401.50;;;3.48;100.00
75157;BME280;63736;50.076;8.198;2023-02-22T02:00:59;99399.97;;;3.44;100.00
75157;BME280;63736;50.076;8.198;2023-02-22T02:03:28;99405.50;;;3.39;100.00
75157;BME280;63736;50.076;8.198;2023-02-22T02:06:00;99395.03;;;3.38;100.00
75157;BME280;63736;50.076;8.198;2023-02-22T02:08:37;99400.50;;;3.35;100.00
75157;BME280;63736;50.076;8.198;2023-02-22T02:11:07;99401.59;;;3.30;100.00
75157;BME280;63736;50.076;8.198;2023-02-22T02:13:33;99403.47;;;3.28;100.00
75157;BME280;63736;50.076;8.198;2023-02-22T02:15:59;99402.69;;;3.26;100.00
75157;BME280;63736;50.076;8.198;2023-02-22T02:18:26;99402.78;;;3.25;100.00
75157;BME280;63736;50.076;8.198;2023-02-22T02:30:01;99397.41;;;3.26;100.00
75157;BME280;63736;50.076;8.198;2023-02-22T02:32:38;99393.09;;;3.25;100.00
75157;BME280;63736;50.076;8.198;2023-02-22T02:37:50;99383.28;;;3.27;100.00
75157;BME280;63736;50.076;8.198;2023-02-22T02:40:34;99378.59;;;3.33;100.00
75157;BME280;63736;50.076;8.198;2023-02-22T02:43:11;99385.34;;;3.38;100.00
75157;BME280;63736;50.076;8.198;2023-02-22T02:45:57;99378.06;;;3.42;100.00
75157;BME280;63736;50.076;8.198;2023-02-22T02:48:26;99379.78;;;3.43;100.00
75157;BME280;63736;50.076;8.198;2023-02-22T02:50:55;99375.53;;;3.40;100.00
75157;BME280;63736;50.076;8.198;2023-02-22T02:53:26;99373.06;;;3.37;100.00
75157;BME280;63736;50.076;8.198;2023-02-22T02:55:52;99380.22;;;3.35;100.00
75157;BME280;63736;50.076;8.198;2023-02-22T02:58:20;99375.84;;;3.34;100.00
75157;BME280;63736;50.076;8.198;2023-02-22T03:00:48;99377.66;;;3.34;100.00
75157;BME280;63736;50.076;8.198;2023-02-22T03:06:09;99375.84;;;3.34;100.00
75157;BME280;63736;50.076;8.198;2023-02-22T03:08:42;99370.66;;;3.33;100.00
75157;BME280;63736;50.076;8.198;2023-02-22T03:22:08;99361.81;;;3.34;100.00
75157;BME280;63736;50.076;8.198;2023-02-22T03:24:48;99353.22;;;3.30;100.00
75157;BME280;63736;50.076;8.198;2023-02-22T03:30:10;99356.72;;;3.30;100.00
75157;BME280;63736;50.076;8.198;2023-02-22T03:32:42;99353.31;;;3.28;100.00
75157;BME280;63736;50.076;8.198;2023-02-22T03:35:17;99351.50;;;3.29;100.00
75157;BME280;63736;50.076;8.198;2023-02-22T03:37:48;99356.97;;;3.26;100.00
75157;BME280;63736;50.076;8.198;2023-02-22T03:40:17;99360.53;;;3.25;100.00
75157;BME280;63736;50.076;8.198;2023-02-22T03:42:52;99348.38;;;3.22;100.00
75157;BME280;63736;50.076;8.198;2023-02-22T03:45:21;99349.56;;;3.17;100.00
75157;BME280;63736;50.076;8.198;2023-02-22T03:47:51;99346.25;;;3.13;100.00
75157;BME280;63736;50.076;8.198;2023-02-22T03:50:21;99354.34;;;3.10;100.00
75157;BME280;63736;50.076;8.198;2023-02-22T03:52:51;99341.25;;;3.08;100.00
75157;BME280;63736;50.076;8.198;2023-02-22T03:55:16;99337.84;;;3.06;100.00
75157;BME280;63736;50.076;8.198;2023-02-22T03:57:46;99338.75;;;3.05;100.00
75157;BME280;63736;50.076;8.198;2023-02-22T04:00:16;99344.91;;;3.06;100.00
75157;BME280;63736;50.076;8.198;2023-02-22T04:02:43;99344.03;;;3.05;100.00
75157;BME280;63736;50.076;8.198;2023-02-22T04:05:09;99345.06;;;3.03;100.00
75157;BME280;63736;50.076;8.198;2023-02-22T04:07:34;99342.50;;;3.01;100.00
75157;BME280;63736;50.076;8.198;2023-02-22T04:09:59;99345.06;;;3.03;100.00
75157;BME280;63736;50.076;8.198;2023-02-22T04:12:27;99342.34;;;3.04;100.00
75157;BME280;63736;50.076;8.198;2023-02-22T04:14:52;99343.09;;;3.06;100.00
75157;BME280;63736;50.076;8.198;2023-02-22T04:17:17;99344.91;;;3.06;100.00
75157;BME280;63736;50.076;8.198;2023-02-22T04:19:43;99339.63;;;3.06;100.00
75157;BME280;63736;50.076;8.198;2023-02-22T04:22:09;99338.84;;;3.04;100.00
75157;BME280;63736;50.076;8.198;2023-02-22T04:24:35;99337.25;;;3.01;100.00
75157;BME280;63736;50.076;8.198;2023-02-22T04:27:00;99332.16;;;2.98;100.00
75157;BME280;63736;50.076;8.198;2023-02-22T04:29:25;99328.53;;;2.99;100.00
75157;BME280;63736;50.076;8.198;2023-02-22T04:31:50;99328.53;;;2.99;100.00
75157;BME280;63736;50.076;8.198;2023-02-22T04:34:16;99321.59;;;2.98;100.00
75157;BME280;63736;50.076;8.198;2023-02-22T04:36:41;99326.94;;;2.96;100.00
75157;BME280;63736;50.076;8.198;2023-02-22T04:39:08;99319.97;;;2.95;100.00
75157;BME280;63736;50.076;8.198;2023-02-22T04:41:34;99321.75;;;2.95;100.00
75157;BME280;63736;50.076;8.198;2023-02-22T04:43:59;99322.53;;;2.97;100.00
75157;BME280;63736;50.076;8.198;2023-02-22T04:46:24;99314.69;;;2.95;100.00
75157;BME280;63736;50.076;8.198;2023-02-22T04:48:50;99313.09;;;2.93;100.00
75157;BME280;63736;50.076;8.198;2023-02-22T04:51:16;99310.44;;;2.93;100.00
75157;BME280;63736;50.076;8.198;2023-02-22T04:53:41;99315.81;;;2.91;100.00
75157;BME280;63736;50.076;8.198;2023-02-22T04:56:07;99315.97;;;2.88;100.00
75157;BME280;63736;50.076;8.198;2023-02-22T04:58:32;99314.34;;;2.86;100.00
75157;BME280;63736;50.076;8.198;2023-02-22T05:00:58;99310.19;;;2.81;100.00
75157;BME280;63736;50.076;8.198;2023-02-22T05:03:23;99309.41;;;2.79;100.00
75157;BME280;63736;50.076;8.198;2023-02-22T05:05:50;99305.16;;;2.77;100.00
75157;BME280;63736;50.076;8.198;2023-02-22T05:08:16;99303.53;;;2.74;100.00
75157;BME280;63736;50.076;8.198;2023-02-22T05:10:41;99300.81;;;2.76;100.00
75157;BME280;63736;50.076;8.198;2023-02-22T05:13:06;99298.94;;;2.78;100.00
75157;BME280;63736;50.076;8.198;2023-02-22T05:15:31;99303.28;;;2.79;100.00
75157;BME280;63736;50.076;8.198;2023-02-22T05:17:57;99307.72;;;2.78;100.00
75157;BME280;63736;50.076;8.198;2023-02-22T05:20:30;99305.09;;;2.78;100.00
75157;BME280;63736;50.076;8.198;2023-02-22T05:22:57;99293.75;;;2.76;100.00
75157;BME280;63736;50.076;8.198;2023-02-22T05:25:24;99296.41;;;2.76;100.00
75157;BME280;63736;50.076;8.198;2023-02-22T05:27:52;99293.56;;;2.79;100.00
75157;BME280;63736;50.076;8.198;2023-02-22T05:30:20;99295.88;;;2.86;100.00
75157;BME280;63736;50.076;8.198;2023-02-22T05:32:47;99292.06;;;2.91;100.00
75157;BME280;63736;50.076;8.198;2023-02-22T05:35:13;99304.16;;;2.95;100.00
75157;BME280;63736;50.076;8.198;2023-02-22T05:37:38;99298.78;;;2.97;100.00
75157;BME280;63736;50.076;8.198;2023-02-22T05:40:04;99295.34;;;2.95;100.00
75157;BME280;63736;50.076;8.198;2023-02-22T05:42:30;99299.97;;;2.91;100.00
75157;BME280;63736;50.076;8.198;2023-02-22T05:44:55;99285.19;;;2.89;100.00
75157;BME280;63736;50.076;8.198;2023-02-22T05:47:20;99295.72;;;2.89;100.00
75157;BME280;63736;50.076;8.198;2023-02-22T05:49:45;99293.09;;;2.89;100.00
75157;BME280;63736;50.076;8.198;2023-02-22T05:52:10;99293.94;;;2.89;100.00
75157;BME280;63736;50.076;8.198;2023-02-22T05:54:36;99292.13;;;2.90;100.00
75157;BME280;63736;50.076;8.198;2023-02-22T05:57:01;99295.72;;;2.89;100.00
75157;BME280;63736;50.076;8.198;2023-02-22T05:59:26;99294.94;;;2.87;100.00
75157;BME280;63736;50.076;8.198;2023-02-22T06:01:53;99286.19;;;2.86;100.00
75157;BME280;63736;50.076;8.198;2023-02-22T06:04:18;99289.50;;;2.90;100.00
75157;BME280;63736;50.076;8.198;2023-02-22T06:06:44;99285.00;;;2.92;100.00
75157;BME280;63736;50.076;8.198;2023-02-22T06:09:09;99295.44;;;2.93;100.00
75157;BME280;63736;50.076;8.198;2023-02-22T06:11:35;99291.09;;;2.92;100.00
75157;BME280;63736;50.076;8.198;2023-02-22T06:14:01;99282.25;;;2.93;100.00
75157;BME280;63736;50.076;8.198;2023-02-22T06:16:26;99278.69;;;2.94;100.00
75157;BME280;63736;50.076;8.198;2023-02-22T06:18:51;99282.00;;;2.98;100.00
75157;BME280;63736;50.076;8.198;2023-02-22T06:21:17;99281.16;;;2.97;100.00
75157;BME280;63736;50.076;8.198;2023-02-22T06:23:42;99282.00;;;2.98;100.00
75157;BME280;63736;50.076;8.198;2023-02-22T06:26:07;99285.59;;;2.97;100.00
75157;BME280;63736;50.076;8.198;2023-02-22T06:28:33;99285.69;;;2.95;100.00
75157;BME280;63736;50.076;8.198;2023-02-22T06:30:58;99293.66;;;2.94;100.00
75157;BME280;63736;50.076;8.198;2023-02-22T06:33:23;99297.34;;;2.91;100.00
75157;BME280;63736;50.076;8.198;2023-02-22T06:35:48;99286.00;;;2.89;100.00
75157;BME280;63736;50.076;8.198;2023-02-22T06:38:21;99296.56;;;2.89;100.00
75157;BME280;63736;50.076;8.198;2023-02-22T06:40:47;99301.84;;;2.89;100.00
75157;BME280;63736;50.076;8.198;2023-02-22T06:43:12;99304.28;;;2.92;100.00
75157;BME280;63736;50.076;8.198;2023-02-22T06:45:38;99308.56;;;2.95;100.00
75157;BME280;63736;50.076;8.198;2023-02-22T06:48:03;99309.16;;;3.00;100.00
75157;BME280;63736;50.076;8.198;2023-02-22T06:50:29;99314.09;;;3.06;100.00
75157;BME280;63736;50.076;8.198;2023-02-22T06:52:56;99313.66;;;3.14;100.00
75157;BME280;63736;50.076;8.198;2023-02-22T06:55:32;99324.69;;;3.21;100.00
75157;BME280;63736;50.076;8.198;2023-02-22T06:57:58;99322.47;;;3.29;100.00
75157;BME280;63736;50.076;8.198;2023-02-22T07:00:25;99329.13;;;3.36;100.00
75157;BME280;63736;50.076;8.198;2023-02-22T07:02:51;99334.78;;;3.44;100.00
75157;BME280;63736;50.076;8.198;2023-02-22T07:05:19;99344.06;;;3.52;100.00
75157;BME280;63736;50.076;8.198;2023-02-22T07:07:45;99345.34;;;3.60;100.00
75157;BME280;63736;50.076;8.198;2023-02-22T07:10:22;99347.53;;;3.68;100.00
75157;BME280;63736;50.076;8.198;2023-02-22T07:12:48;99346.06;;;3.78;100.00
75157;BME280;63736;50.076;8.198;2023-02-22T07:15:15;99348.91;;;3.90;100.00
75157;BME280;63736;50.076;8.198;2023-02-22T07:17:42;99343.84;;;4.01;100.00
75157;BME280;63736;50.076;8.198;2023-02-22T07:20:07;99350.06;;;4.14;100.00
75157;BME280;63736;50.076;8.198;2023-02-22T07:22:35;99338.66;;;4.28;100.00
75157;BME280;63736;50.076;8.198;2023-02-22T07:25:00;99347.44;;;4.43;100.00
75157;BME280;63736;50.076;8.198;2023-02-22T07:27:26;99341.88;;;4.62;100.00
75157;BME280;63736;50.076;8.198;2023-02-22T07:29:51;99347.53;;;4.85;100.00
75157;BME280;63736;50.076;8.198;2023-02-22T07:32:16;99350.41;;;5.09;100.00
75157;BME280;63736;50.076;8.198;2023-02-22T07:34:41;99341.53;;;5.38;100.00
75157;BME280;63736;50.076;8.198;2023-02-22T07:37:07;99343.31;;;5.65;100.00
75157;BME280;63736;50.076;8.198;2023-02-22T07:39:32;99342.50;;;5.90;100.00
75157;BME280;63736;50.076;8.198;2023-02-22T07:41:58;99336.63;;;6.12;100.00
75157;BME280;63736;50.076;8.198;2023-02-22T07:44:24;99346.41;;;6.37;100.00
75157;BME280;63736;50.076;8.198;2023-02-22T07:46:49;99340.72;;;6.68;100.00
75157;BME280;63736;50.076;8.198;2023-02-22T07:49:15;99337.69;;;6.98;100.00
75157;BME280;63736;50.076;8.198;2023-02-22T07:51:40;99334.91;;;7.37;100.00
75157;BME280;63736;50.076;8.198;2023-02-22T07:54:06;99333.84;;;7.75;100.00
75157;BME280;63736;50.076;8.198;2023-02-22T07:56:31;99329.22;;;8.01;100.00
75157;BME280;63736;50.076;8.198;2023-02-22T07:58:56;99329.16;;;8.37;100.00
75157;BME280;63736;50.076;8.198;2023-02-22T08:01:22;99333.28;;;8.86;100.00
75157;BME280;63736;50.076;8.198;2023-02-22T08:03:48;99333.31;;;9.30;100.00
75157;BME280;63736;50.076;8.198;2023-02-22T08:06:13;99323.47;;;9.74;100.00
75157;BME280;63736;50.076;8.198;2023-02-22T08:08:39;99326.38;;;10.35;100.00
75157;BME280;63736;50.076;8.198;2023-02-22T08:11:04;99318.91;;;10.90;100.00
75157;BME280;63736;50.076;8.198;2023-02-22T08:13:29;99312.38;;;11.44;100.00
75157;BME280;63736;50.076;8.198;2023-02-22T08:15:55;99324.91;;;11.92;100.00
75157;BME280;63736;50.076;8.198;2023-02-22T08:18:21;99327.88;;;12.09;100.00
75157;BME280;63736;50.076;8.198;2023-02-22T08:20:48;99324.59;;;12.34;100.00
75157;BME280;63736;50.076;8.198;2023-02-22T08:23:15;99325.75;;;12.69;99.51
75157;BME280;63736;50.076;8.198;2023-02-22T08:25:40;99324.47;;;13.19;94.49
75157;BME280;63736;50.076;8.198;2023-02-22T08:28:12;99320.88;;;13.75;88.91
75157;BME280;63736;50.076;8.198;2023-02-22T08:30:38;99318.28;;;14.35;85.95
75157;BME280;63736;50.076;8.198;2023-02-22T08:33:04;99321.84;;;15.05;80.95
75157;BME280;63736;50.076;8.198;2023-02-22T08:35:31;99314.22;;;15.60;76.85
75157;BME280;63736;50.076;8.198;2023-02-22T08:38:03;99318.97;;;16.24;74.41
75157;BME280;63736;50.076;8.198;2023-02-22T08:40:30;99317.53;;;17.09;71.29
75157;BME280;63736;50.076;8.198;2023-02-22T08:42:56;99313.88;;;17.79;66.27
75157;BME280;63736;50.076;8.198;2023-02-22T08:45:22;99321.91;;;18.11;63.67
75157;BME280;63736;50.076;8.198;2023-02-22T08:47:48;99329.63;;;17.99;63.65
75157;BME280;63736;50.076;8.198;2023-02-22T08:50:22;99324.44;;;17.66;64.98
75157;BME280;63736;50.076;8.198;2023-02-22T08:52:50;99326.88;;;17.29;67.80
75157;BME280;63736;50.076;8.198;2023-02-22T08:55:18;99321.22;;;16.68;70.28
75157;BME280;63736;50.076;8.198;2023-02-22T08:57:43;99319.66;;;15.93;74.34
75157;BME280;63736;50.076;8.198;2023-02-22T09:00:09;99323.22;;;15.17;78.48
75157;BME280;63736;50.076;8.198;2023-02-22T09:02:34;99323.56;;;14.45;83.06
75157;BME280;63736;50.076;8.198;2023-02-22T09:05:00;99330.03;;;13.90;87.06
75157;BME280;63736;50.076;8.198;2023-02-22T09:07:25;99320.78;;;13.48;90.66
75157;BME280;63736;50.076;8.198;2023-02-22T09:09:50;99323.63;;;13.19;91.89
75157;BME280;63736;50.076;8.198;2023-02-22T09:12:16;99321.06;;;12.99;93.78
75157;BME280;63736;50.076;8.198;2023-02-22T09:14:41;99322.09;;;12.88;95.00
75157;BME280;63736;50.076;8.198;2023-02-22T09:17:07;99316.34;;;12.83;96.20
75157;BME280;63736;50.076;8.198;2023-02-22T09:19:32;99321.97;;;12.90;96.37
75157;BME280;63736;50.076;8.198;2023-02-22T09:21:58;99314.81;;;12.81;96.80
75157;BME280;63736;50.076;8.198;2023-02-22T09:24:26;99311.03;;;12.73;97.83
75157;BME280;63736;50.076;8.198;2023-02-22T09:26:51;99314.88;;;12.71;98.18
75157;BME280;63736;50.076;8.198;2023-02-22T09:29:22;99313.00;;;12.71;99.24
75157;BME280;63736;50.076;8.198;2023-02-22T09:31:48;99318.22;;;12.73;99.22
75157;BME280;63736;50.076;8.198;2023-02-22T09:34:14;99310.31;;;12.81;99.15
75157;BME280;63736;50.076;8.198;2023-02-22T09:36:45;99304.38;;;13.05;98.01
75157;BME280;63736;50.076;8.198;2023-02-22T09:39:12;99298.69;;;13.36;95.75
75157;BME280;63736;50.076;8.198;2023-02-22T09:44:35;99300.59;;;14.25;88.29
75157;BME280;63736;50.076;8.198;2023-02-22T09:47:13;99296.78;;;14.62;85.01
75157;BME280;63736;50.076;8.198;2023-02-22T09:49:57;99299.34;;;14.72;83.33
75157;BME280;63736;50.076;8.198;2023-02-22T09:52:35;99298.75;;;14.60;82.03
75157;BME280;63736;50.076;8.198;2023-02-22T09:57:36;99300.22;;;14.19;85.50
75157;BME280;63736;50.076;8.198;2023-02-22T10:00:17;99304.72;;;13.93;88.50
75157;BME280;63736;50.076;8.198;2023-02-22T10:05:59;99306.09;;;13.25;93.17
75157;BME280;63736;50.076;8.198;2023-02-22T10:08:30;99310.03;;;13.02;95.35
75157;BME280;63736;50.076;8.198;2023-02-22T10:11:10;99304.81;;;12.73;98.46
75157;BME280;63736;50.076;8.198;2023-02-22T10:13:56;99309.00;;;12.58;99.88
75157;BME280;63736;50.076;8.198;2023-02-22T10:16:35;99304.00;;;12.35;100.00
75157;BME280;63736;50.076;8.198;2023-02-22T10:19:08;99305.44;;;12.19;100.00
75157;BME280;63736;50.076;8.198;2023-02-22T10:21:55;99304.91;;;12.06;100.00
75157;BME280;63736;50.076;8.198;2023-02-22T10:27:06;99303.34;;;11.94;100.00
75157;BME280;63736;50.076;8.198;2023-02-22T10:29:43;99308.69;;;11.94;100.00
75157;BME280;63736;50.076;8.198;2023-02-22T10:32:22;99305.75;;;11.87;100.00
75157;BME280;63736;50.076;8.198;2023-02-22T10:34:50;99304.78;;;11.88;100.00
75157;BME280;63736;50.076;8.198;2023-02-22T10:37:24;99295.91;;;11.97;100.00
75157;BME280;63736;50.076;8.198;2023-02-22T10:40:16;99292.09;;;12.10;100.00
75157;BME280;63736;50.076;8.198;2023-02-22T10:42:43;99295.59;;;12.20;100.00
75157;BME280;63736;50.076;8.198;2023-02-22T10:45:24;99284.88;;;12.20;100.00
75157;BME280;63736;50.076;8.198;2023-02-22T10:47:53;99289.34;;;12.29;100.00
75157;BME280;63736;50.076;8.198;2023-02-22T10:50:20;99290.59;;;12.35;100.00
75157;BME280;63736;50.076;8.198;2023-02-22T10:52:46;99284.34;;;12.44;100.00
75157;BME280;63736;50.076;8.198;2023-02-22T10:55:13;99280.53;;;12.47;100.00
75157;BME280;63736;50.076;8.198;2023-02-22T10:57:39;99282.78;;;12.51;99.84
75157;BME280;63736;50.076;8.198;2023-02-22T11:00:27;99274.28;;;12.56;99.11
75157;BME280;63736;50.076;8.198;2023-02-22T11:03:18;99275.31;;;12.55;98.66
75157;BME280;63736;50.076;8.198;2023-02-22T11:05:44;99274.28;;;12.56;98.07
75157;BME280;63736;50.076;8.198;2023-02-22T11:08:30;99280.91;;;12.62;97.26
75157;BME280;63736;50.076;8.198;2023-02-22T11:11:00;99278.91;;;12.64;96.09
75157;BME280;63736;50.076;8.198;2023-02-22T11:16:00;99268.25;;;12.54;95.67
75157;BME280;63736;50.076;8.198;2023-02-22T11:18:30;99276.03;;;12.47;96.55
75157;BME280;63736;50.076;8.198;2023-02-22T11:21:02;99273.66;;;12.44;96.63
75157;BME280;63736;50.076;8.198;2023-02-22T11:23:28;99268.44;;;12.43;96.98
75157;BME280;63736;50.076;8.198;2023-02-22T11:26:23;99267.88;;;12.39;97.33
75157;BME280;63736;50.076;8.198;2023-02-22T11:28:49;99269.72;;;12.38;96.87
75157;BME280;63736;50.076;8.198;2023-02-22T11:31:22;99257.72;;;12.43;96.72
75157;BME280;63736;50.076;8.198;2023-02-22T11:34:00;99250.13;;;12.38;97.28
75157;BME280;63736;50.076;8.198;2023-02-22T11:36:37;99250.34;;;12.54;95.78
75157;BME280;63736;50.076;8.198;2023-02-22T11:39:29;99251.38;;;12.71;94.21
75157;BME280;63736;50.076;8.198;2023-02-22T11:42:16;99244.66;;;12.85;92.96
75157;BME280;63736;50.076;8.198;2023-02-22T11:44:44;99237.56;;;12.94;92.03
75157;BME280;63736;50.076;8.198;2023-02-22T11:47:11;99239.78;;;12.99;92.33
75157;BME280;63736;50.076;8.198;2023-02-22T11:49:38;99232.28;;;13.02;91.23
75157;BME280;63736;50.076;8.198;2023-02-22T11:58:09;99223.78;;;13.25;85.36
75157;BME280;63736;50.076;8.198;2023-02-22T12:00:56;99221.41;;;13.22;83.69
75157;BME280;63736;50.076;8.198;2023-02-22T12:03:39;99211.16;;;13.17;84.31
75157;BME280;63736;50.076;8.198;2023-02-22T12:09:02;99217.56;;;13.06;83.88
75157;BME280;63736;50.076;8.198;2023-02-22T12:11:38;99212.06;;;13.08;84.22
75157;BME280;63736;50.076;8.198;2023-02-22T12:14:23;99217.28;;;13.10;84.53
75157;BME280;63736;50.076;8.198;2023-02-22T12:17:17;99206.84;;;13.06;84.64
75157;BME280;63736;50.076;8.198;2023-02-22T12:22:22;99213.47;;;13.12;85.14
75157;BME280;63736;50.076;8.198;2023-02-22T12:24:59;99210.78;;;13.12;85.30
75157;BME280;63736;50.076;8.198;2023-02-22T12:27:31;99211.44;;;13.14;85.44
75157;BME280;63736;50.076;8.198;2023-02-22T12:30:04;99212.00;;;13.18;85.54
75157;BME280;63736;50.076;8.198;2023-02-22T12:32:52;99205.25;;;13.32;84.12
75157;BME280;63736;50.076;8.198;2023-02-22T12:35:22;99200.81;;;13.41;82.95
75157;BME280;63736;50.076;8.198;2023-02-22T12:38:00;99197.19;;;13.50;81.54
75157;BME280;63736;50.076;8.198;2023-02-22T12:40:53;99195.13;;;13.62;80.14
75157;BME280;63736;50.076;8.198;2023-02-22T12:43:31;99191.16;;;13.74;80.33
75157;BME280;63736;50.076;8.198;2023-02-22T12:46:36;99190.94;;;13.94;78.24
75157;BME280;63736;50.076;8.198;2023-02-22T12:49:12;99192.56;;;14.13;76.89
75157;BME280;63736;50.076;8.198;2023-02-22T12:52:15;99183.22;;;14.25;75.24
75157;BME280;63736;50.076;8.198;2023-02-22T12:54:57;99185.94;;;14.33;73.57
75157;BME280;63736;50.076;8.198;2023-02-22T12:57:46;99188.47;;;14.35;72.34
75157;BME280;63736;50.076;8.198;2023-02-22T13:00:19;99182.38;;;14.25;71.26
75157;BME280;63736;50.076;8.198;2023-02-22T13:03:00;99183.19;;;14.17;71.85
75157;BME280;63736;50.076;8.198;2023-02-22T13:05:33;99184.19;;;14.16;72.77
75157;BME280;63736;50.076;8.198;2023-02-22T13:11:00;99176.63;;;14.11;73.77
75157;BME280;63736;50.076;8.198;2023-02-22T13:13:35;99172.78;;;14.14;74.68
75157;BME280;63736;50.076;8.198;2023-02-22T13:21:27;99169.88;;;14.07;72.80
75157;BME280;63736;50.076;8.198;2023-02-22T13:24:12;99167.63;;;13.94;72.78
75157;BME280;63736;50.076;8.198;2023-02-22T13:26:46;99171.06;;;13.78;73.46
75157;BME280;63736;50.076;8.198;2023-02-22T13:29:38;99163.56;;;13.64;73.96
75157;BME280;63736;50.076;8.198;2023-02-22T13:37:43;99150.28;;;13.54;74.83
75157;BME280;63736;50.076;8.198;2023-02-22T13:46:27;99148.47;;;13.63;75.44
75157;BME280;63736;50.076;8.198;2023-02-22T13:52:22;99152.81;;;13.55;75.69
75157;BME280;63736;50.076;8.198;2023-02-22T13:54:53;99146.84;;;13.44;76.46
75157;BME280;63736;50.076;8.198;2023-02-22T13:57:25;99149.00;;;13.40;76.81
75157;BME280;63736;50.076;8.198;2023-02-22T14:00:20;99151.44;;;13.33;77.67
75157;BME280;63736;50.076;8.198;2023-02-22T14:05:35;99158.72;;;13.23;78.86
75157;BME280;63736;50.076;8.198;2023-02-22T14:08:00;99156.00;;;13.15;78.75
75157;BME280;63736;50.076;8.198;2023-02-22T14:13:08;99154.53;;;13.02;79.51
75157;BME280;63736;50.076;8.198;2023-02-22T14:15:33;99151.84;;;13.02;79.49
75157;BME280;63736;50.076;8.198;2023-02-22T14:18:00;99152.00;;;13.01;79.79
75157;BME280;63736;50.076;8.198;2023-02-22T14:20:32;99150.16;;;13.01;80.24
75157;BME280;63736;50.076;8.198;2023-02-22T14:23:31;99151.84;;;13.02;80.55
75157;BME280;63736;50.076;8.198;2023-02-22T14:26:10;99147.03;;;13.06;80.59
75157;BME280;63736;50.076;8.198;2023-02-22T14:31:10;99156.66;;;13.17;80.67
75157;BME280;63736;50.076;8.198;2023-02-22T14:33:50;99139.25;;;13.21;81.02
75157;BME280;63736;50.076;8.198;2023-02-22T14:36:21;99136.28;;;13.24;80.90
75157;BME280;63736;50.076;8.198;2023-02-22T14:38:47;99134.44;;;13.25;81.12
75157;BME280;63736;50.076;8.198;2023-02-22T14:41:15;99135.75;;;13.20;81.42